»·PEaware :: AWE482 KPHX-KDEN

AWE482 :: KPHX-KDEN

FLIGHT INFORMATION

Flight Status: Arrived
Operator:
US Airways
More flights by this operator :: More flights under this callsign
Pilot: Kevin B. (675)
Aircraft: AIRBUS A320
(A320)
More flights by this aircraft type
Origin: KPHX Phoenix Sky Harbor Intl
United States
Destination: KDEN Denver Intl
United States
More flights between these airports :: More routes between these airports
Route: MRBIL1 YOOPR OURAY LDORA2
File this flight plan on PilotEdge
Remarks: Retro Callsign "Cactus"
Altitude:
(Current/Filed)
33,000ft
Speed:
(Current/Filed)
450kts
Departed: 28-Jul-19 07:38 AM
Arrived: 28-Jul-19 08:57 AM
Distance/Time
Traveled:
522nm/1:19
Distance/Time
To Go:
Arrived

Flight Plot

Page will automatically refresh every two minutes.

Flight plan parsing failed; only flown route is shown


Map Options




Map Legend


Flown Route
Filed Route
Departure Airport
Arrival Airport
Navaid (VOR, NDB)
Fix

Horizontal Profiles

Position Reports

Time Latitude Longitude Heading Altitude Ground
Speed
28-Jul-19 06:59 33.437285 -111.994866 90 1118ft 0kts
28-Jul-19 07:00 33.437285 -111.994866 90 1118ft 0kts
28-Jul-19 07:01 33.437285 -111.994866 90 1118ft 0kts
28-Jul-19 07:03 33.437285 -111.994866 90 1118ft 0kts
28-Jul-19 07:04 33.437285 -111.994866 90 1118ft 0kts
28-Jul-19 07:05 33.437285 -111.994866 90 1118ft 0kts
28-Jul-19 07:06 33.437285 -111.994866 90 1118ft 0kts
28-Jul-19 07:07 33.437285 -111.994866 90 1118ft 0kts
28-Jul-19 07:08 33.437285 -111.994866 90 1118ft 0kts
28-Jul-19 07:09 33.437285 -111.994866 90 1118ft 0kts
28-Jul-19 07:10 33.437285 -111.994866 90 1118ft 0kts
28-Jul-19 07:11 33.437285 -111.994866 90 1118ft 0kts
28-Jul-19 07:12 33.437285 -111.994866 90 1118ft 0kts
28-Jul-19 07:13 33.437285 -111.994866 90 1118ft 0kts
28-Jul-19 07:14 33.437285 -111.994866 90 1118ft 0kts
28-Jul-19 07:15 33.437285 -111.994866 90 1118ft 0kts
28-Jul-19 07:16 33.437285 -111.994866 90 1118ft 0kts
28-Jul-19 07:17 33.437285 -111.994866 90 1118ft 0kts
28-Jul-19 07:18 33.437285 -111.994866 90 1118ft 0kts
28-Jul-19 07:19 33.437285 -111.994866 90 1118ft 0kts
28-Jul-19 07:20 33.437285 -111.994961 79 1118ft 2kts
28-Jul-19 07:20 33.436940 -111.995330 4 1118ft 1kts
28-Jul-19 07:22 33.436871 -111.995330 356 1118ft 0kts
28-Jul-19 07:23 33.436871 -111.995330 356 1118ft 0kts
28-Jul-19 07:24 33.436871 -111.995330 356 1118ft 0kts
28-Jul-19 07:25 33.437623 -111.995346 359 1118ft 7kts
28-Jul-19 07:25 33.439253 -111.995446 343 1118ft 7kts
28-Jul-19 07:27 33.439733 -111.997952 270 1118ft 4kts
28-Jul-19 07:27 33.439739 -112.001304 269 1118ft 15kts
28-Jul-19 07:28 33.439748 -112.006054 270 1118ft 13kts
28-Jul-19 07:29 33.439744 -112.009969 269 1118ft 10kts
28-Jul-19 07:30 33.439735 -112.012924 270 1118ft 9kts
28-Jul-19 07:31 33.439752 -112.017486 269 1118ft 13kts
28-Jul-19 07:32 33.439763 -112.021734 269 1118ft 13kts
28-Jul-19 07:33 33.439770 -112.026439 269 1118ft 13kts
28-Jul-19 07:34 33.439860 -112.029433 303 1118ft 0kts
28-Jul-19 07:35 33.439861 -112.029433 303 1118ft 0kts
28-Jul-19 07:36 33.440867 -112.028453 90 1118ft 16kts
28-Jul-19 07:37 33.440876 -111.984134 92 2483ft 184kts
28-Jul-19 07:38 33.437347 -111.918693 92 4555ft 237kts
28-Jul-19 07:39 33.451140 -111.844046 35 6532ft 276kts
28-Jul-19 07:40 33.526988 -111.833884 356 8679ft 300kts
28-Jul-19 07:41 33.612025 -111.835769 357 10654ft 305kts
28-Jul-19 07:42 33.703305 -111.819889 14 11814ft 364kts
28-Jul-19 07:43 33.805815 -111.780374 32 12651ft 409kts
28-Jul-19 07:44 33.898234 -111.696060 36 14258ft 420kts
28-Jul-19 07:45 33.991603 -111.610157 35 16090ft 420kts
28-Jul-19 07:46 34.086759 -111.535548 31 18483ft 409kts
28-Jul-19 07:47 34.183697 -111.460978 31 20065ft 418kts
28-Jul-19 07:48 34.282814 -111.384562 31 21506ft 426kts
28-Jul-19 07:49 34.383669 -111.306592 31 22817ft 434kts
28-Jul-19 07:50 34.486354 -111.226973 31 24017ft 442kts
28-Jul-19 07:51 34.590557 -111.145937 31 25120ft 449kts
28-Jul-19 07:52 34.699444 -111.070465 27 26170ft 453kts
28-Jul-19 07:53 34.810799 -110.997440 27 27139ft 458kts
28-Jul-19 07:54 34.923521 -110.923303 26 28001ft 463kts
28-Jul-19 07:55 35.037709 -110.847964 26 28561ft 473kts
28-Jul-19 07:56 35.154440 -110.770691 26 29167ft 477kts
28-Jul-19 07:57 35.270959 -110.693325 26 29965ft 476kts
28-Jul-19 07:58 35.387264 -110.615834 26 30764ft 475kts
28-Jul-19 07:59 35.502637 -110.538709 26 31528ft 474kts
28-Jul-19 08:00 35.618040 -110.461306 26 32249ft 472kts
28-Jul-19 08:01 35.715393 -110.352769 46 32895ft 477kts
28-Jul-19 08:02 35.801861 -110.230525 47 33284ft 477kts
28-Jul-19 08:03 35.888611 -110.107505 47 33309ft 476kts
28-Jul-19 08:04 35.975411 -109.983948 47 33368ft 477kts
28-Jul-19 08:05 36.062232 -109.859905 47 33400ft 477kts
28-Jul-19 08:06 36.148442 -109.736283 47 33398ft 477kts
28-Jul-19 08:07 36.234974 -109.611741 47 33398ft 477kts
28-Jul-19 08:08 36.321432 -109.486844 47 33397ft 477kts
28-Jul-19 08:09 36.407566 -109.361948 47 33397ft 477kts
28-Jul-19 08:10 36.493115 -109.237446 47 33393ft 477kts
28-Jul-19 08:11 36.579016 -109.111958 47 33342ft 476kts
28-Jul-19 08:12 36.664383 -108.986783 47 33317ft 475kts
28-Jul-19 08:13 36.749704 -108.861203 47 33319ft 474kts
28-Jul-19 08:14 36.834680 -108.735657 47 33307ft 474kts
28-Jul-19 08:15 36.919554 -108.609787 47 33318ft 474kts
28-Jul-19 08:16 37.004259 -108.483690 47 33314ft 474kts
28-Jul-19 08:17 37.089140 -108.356847 47 33319ft 474kts
28-Jul-19 08:18 37.170366 -108.235006 47 33314ft 475kts
28-Jul-19 08:19 37.254735 -108.107979 47 33366ft 475kts
28-Jul-19 08:20 37.339027 -107.980576 47 33393ft 475kts
28-Jul-19 08:21 37.423155 -107.852932 48 33391ft 475kts
28-Jul-19 08:22 37.507333 -107.724713 48 33462ft 475kts
28-Jul-19 08:23 37.591293 -107.596328 48 33452ft 475kts
28-Jul-19 08:24 37.675050 -107.467750 48 33473ft 475kts
28-Jul-19 08:25 37.757305 -107.340979 48 33493ft 475kts
28-Jul-19 08:26 37.840908 -107.211630 48 33509ft 475kts
28-Jul-19 08:27 37.924464 -107.081841 48 33531ft 475kts
28-Jul-19 08:28 38.007872 -106.951770 48 33519ft 475kts
28-Jul-19 08:29 38.090996 -106.821620 48 33523ft 473kts
28-Jul-19 08:30 38.173319 -106.692208 48 33515ft 473kts
28-Jul-19 08:31 38.257862 -106.563965 40 33512ft 471kts
28-Jul-19 08:32 38.352530 -106.449001 41 33505ft 471kts
28-Jul-19 08:33 38.446226 -106.332800 42 33492ft 471kts
28-Jul-19 08:34 38.539976 -106.215919 42 33489ft 471kts
28-Jul-19 08:35 38.633365 -106.099055 42 33293ft 468kts
28-Jul-19 08:36 38.725727 -105.982845 42 30673ft 470kts
28-Jul-19 08:37 38.818009 -105.866398 42 28447ft 459kts
28-Jul-19 08:38 38.907578 -105.752783 42 26297ft 447kts
28-Jul-19 08:39 38.994418 -105.642130 41 24149ft 436kts
28-Jul-19 08:40 39.079299 -105.533576 42 21949ft 428kts
28-Jul-19 08:41 39.161729 -105.427856 42 19963ft 414kts
28-Jul-19 08:42 39.239160 -105.328611 42 19168ft 371kts
28-Jul-19 08:43 39.275415 -105.210526 75 17892ft 354kts
28-Jul-19 08:44 39.298137 -105.089216 75 16964ft 343kts
28-Jul-19 08:45 39.320943 -104.969910 64 16029ft 337kts
28-Jul-19 08:46 39.386751 -104.895173 28 14308ft 320kts
28-Jul-19 08:47 39.458725 -104.832759 28 12265ft 294kts
28-Jul-19 08:48 39.525525 -104.774924 28 9808ft 285kts
28-Jul-19 08:49 39.590171 -104.720861 28 8058ft 254kts
28-Jul-19 08:50 39.644750 -104.689845 359 8029ft 194kts
28-Jul-19 08:51 39.698899 -104.689245 358 8029ft 196kts
28-Jul-19 08:52 39.754139 -104.688440 357 7627ft 194kts
28-Jul-19 08:53 39.799925 -104.687968 357 6749ft 155kts
28-Jul-19 08:54 39.842818 -104.687465 358 5902ft 151kts
28-Jul-19 08:55 39.880037 -104.687030 356 5443ft 54kts
28-Jul-19 08:56 39.886199 -104.684989 114 5443ft 4kts
28-Jul-19 08:57 39.884946 -104.684830 180 5443ft 4kts
28-Jul-19 08:58 39.878857 -104.684903 179 5443ft 33kts
28-Jul-19 08:59 39.870593 -104.684995 180 5443ft 25kts
28-Jul-19 09:00 39.864117 -104.685076 180 5443ft 20kts
28-Jul-19 09:01 39.861380 -104.682048 91 5443ft 18kts
28-Jul-19 09:02 39.859434 -104.679477 179 5443ft 0kts

Navigation Log

Ident Type
Flight plan parsing failed, navigation log unavailable